Terminal Aerodrome Forecast
Issued by NWS Wilmington, OH

Current Version | Previous Version | Graphics & Text | Print | Product List | Glossary On
Versions: 1 2 3 4 5 6 7 8 9 10 11 12 13 14 15 16 17 18 19 20 21 22 23 24 25
000
FTUS41 KILN 231702 AAD
TAFDAY
TAF AMD
KDAY 231702Z 2317/2412 22010G18KT 1SM SHRA VCTS OVC020CB
     FM232300 26006KT P6SM VCSH OVC040
     FM240300 34007KT P6SM BKN040
     FM240600 33005KT P6SM SCT250=

USA.gov is the U.S. government's official web portal to all federal, state and local government web resources and services.